Bleecker, New York
Current Conditions -  °F | °C
As of 9:55 PM on Tuesday 25 Nov 2014 (Local Time) from KNY0 Reporting Station
Clear Clear  
Wind Chill: 29°   Ceiling: Unl
Heat Index: 34°   Visibility: 10mi
Dew Point: 25°   Wind: 6mph
Humidity: 69%   Direction: 250°WSW
Pressure: 30.1"   Gusts: NA
Location:  43.1204°N, 74.3629°W
Report Text: KNY0 260255Z AUTO 25005KT 10SM CLR 01/M04 A3010 RMK AO2 T00111040
Loading
Personal Weather Stations






























Interactive Weather Map New forecast layout! Learn more

10-Day Weather Forecast

Advertisements
Track Severe Weather on mobile